createdAt,value
2023-03-03T00:01:15.834Z,31.23
2023-03-03T00:03:43.808Z,31.25
2023-03-03T00:06:14.860Z,31.77
2023-03-03T00:08:44.393Z,31.21
2023-03-03T00:11:15.694Z,31.10
2023-03-03T00:13:45.118Z,31.31
2023-03-03T00:16:18.383Z,31.37
2023-03-03T00:18:46.156Z,31.28
2023-03-03T00:21:14.175Z,31.76
2023-03-03T00:23:42.824Z,31.56
2023-03-03T00:26:11.397Z,31.32
2023-03-03T00:28:44.325Z,31.77
2023-03-03T00:31:17.694Z,31.34
2023-03-03T00:33:46.602Z,31.87
2023-03-03T00:36:15.311Z,31.57
2023-03-03T00:38:43.083Z,31.24
2023-03-03T00:41:15.210Z,31.44
2023-03-03T00:43:43.865Z,31.27
2023-03-03T00:46:11.713Z,31.39
2023-03-03T00:48:45.002Z,31.73
2023-03-03T00:51:15.135Z,31.06
2023-03-03T00:53:43.106Z,31.09
2023-03-03T00:56:15.639Z,31.11
2023-03-03T00:58:44.354Z,31.83
2023-03-03T01:01:12.426Z,31.28
2023-03-03T01:03:40.236Z,31.51
2023-03-03T01:06:10.095Z,31.41
2023-03-03T01:08:38.343Z,31.49
2023-03-03T01:11:06.077Z,32.01
2023-03-03T01:13:43.052Z,31.69
2023-03-03T01:16:13.725Z,31.82
2023-03-03T01:18:41.853Z,31.68
2023-03-03T01:21:11.924Z,31.28
2023-03-03T01:23:45.116Z,31.99
2023-03-03T01:26:13.243Z,31.37
2023-03-03T01:28:43.956Z,31.82
2023-03-03T01:31:12.803Z,31.46
2023-03-03T01:33:41.219Z,31.28
2023-03-03T01:36:09.336Z,31.72
2023-03-03T01:38:37.751Z,31.56
2023-03-03T01:41:05.568Z,31.76
2023-03-03T01:43:33.602Z,31.16
2023-03-03T01:46:02.867Z,31.28
2023-03-03T01:48:32.560Z,31.26
2023-03-03T01:51:01.651Z,31.16
2023-03-03T01:53:29.520Z,31.44
2023-03-03T01:55:57.285Z,31.65
2023-03-03T01:58:25.219Z,31.21
2023-03-03T02:00:53.189Z,31.77
2023-03-03T02:03:21.240Z,31.37
2023-03-03T02:05:49.069Z,31.24
2023-03-03T02:08:16.820Z,31.09
2023-03-03T02:10:46.599Z,31.26
2023-03-03T02:13:14.583Z,31.27
2023-03-03T02:15:42.559Z,31.98
2023-03-03T02:18:12.961Z,31.41
2023-03-03T02:20:44.420Z,31.90
2023-03-03T02:23:12.189Z,31.77
2023-03-03T02:25:40.111Z,32.00
2023-03-03T02:28:07.961Z,31.24
2023-03-03T02:30:35.725Z,31.53
2023-03-03T02:33:03.559Z,31.82
2023-03-03T02:35:33.584Z,31.75
2023-03-03T02:38:03.469Z,31.73
2023-03-03T02:40:32.863Z,31.41
2023-03-03T02:43:00.593Z,31.69
2023-03-03T02:45:28.380Z,31.66
2023-03-03T02:47:56.944Z,31.79
2023-03-03T02:50:25.328Z,31.62
2023-03-03T02:52:55.943Z,31.58
2023-03-03T02:55:24.299Z,31.71
2023-03-03T02:57:52.216Z,31.20
2023-03-03T03:00:21.437Z,31.35
2023-03-03T03:02:49.832Z,31.88
2023-03-03T03:05:20.138Z,31.66
2023-03-03T03:07:47.865Z,31.90
2023-03-03T03:10:15.700Z,31.95
2023-03-03T03:12:43.881Z,31.60
2023-03-03T03:15:12.039Z,31.79
2023-03-03T03:17:39.997Z,31.81
2023-03-03T03:20:07.991Z,31.90
2023-03-03T03:22:37.000Z,31.07
2023-03-03T03:25:07.374Z,31.77
2023-03-03T03:27:35.153Z,31.25
2023-03-03T03:30:05.015Z,31.81
2023-03-03T03:32:32.974Z,31.49
2023-03-03T03:35:06.033Z,31.01
2023-03-03T03:37:36.493Z,31.85
2023-03-03T03:40:04.208Z,31.40
2023-03-03T03:42:34.158Z,31.87
2023-03-03T03:45:02.181Z,31.29
2023-03-03T03:47:29.936Z,31.30
2023-03-03T03:49:58.245Z,31.76
2023-03-03T03:52:26.573Z,31.69
2023-03-03T03:54:54.320Z,31.98
2023-03-03T03:57:26.577Z,31.33
2023-03-03T03:59:54.526Z,31.39
2023-03-03T04:02:22.391Z,31.15
2023-03-03T04:04:50.276Z,32.02
2023-03-03T04:07:19.154Z,31.56
2023-03-03T04:09:47.032Z,32.13
2023-03-03T04:12:14.785Z,31.97
2023-03-03T04:14:42.624Z,31.49
2023-03-03T04:17:10.526Z,31.64
2023-03-03T04:19:38.380Z,31.90
2023-03-03T04:22:07.054Z,31.72
2023-03-03T04:24:36.127Z,31.66
2023-03-03T04:27:03.971Z,32.09
2023-03-03T04:29:31.940Z,31.86
2023-03-03T04:31:59.701Z,31.63
2023-03-03T04:34:27.528Z,31.67
2023-03-03T04:36:55.717Z,32.25
2023-03-03T04:39:23.475Z,32.16
2023-03-03T04:41:51.279Z,32.02
2023-03-03T04:44:19.005Z,32.01
2023-03-03T04:46:46.802Z,31.53
2023-03-03T04:49:14.613Z,31.81
2023-03-03T04:51:42.403Z,31.78
2023-03-03T04:54:10.171Z,31.85
2023-03-03T04:56:37.917Z,31.65
2023-03-03T04:59:06.705Z,32.38
2023-03-03T05:01:34.893Z,31.82
2023-03-03T05:04:02.655Z,31.98
2023-03-03T05:06:30.782Z,32.06
2023-03-03T05:08:58.595Z,31.69
2023-03-03T05:11:26.967Z,31.96
2023-03-03T05:13:54.785Z,32.11
2023-03-03T05:16:22.598Z,32.35
2023-03-03T05:25:42.455Z,32.81
2023-03-03T05:28:13.003Z,32.38
2023-03-03T05:32:01.517Z,32.34
2023-03-03T05:34:31.168Z,32.85
2023-03-03T05:36:59.043Z,32.45
2023-03-03T05:39:29.417Z,32.69
2023-03-03T05:41:57.255Z,33.15
2023-03-03T05:44:25.537Z,33.02
2023-03-03T05:46:53.356Z,32.96
2023-03-03T05:49:31.708Z,32.64
2023-03-03T05:52:00.777Z,32.49
2023-03-03T05:55:01.818Z,33.07
2023-03-03T05:57:30.549Z,32.26
2023-03-03T06:05:49.228Z,32.86
2023-03-03T06:08:17.049Z,32.80
2023-03-03T06:10:44.747Z,32.77
2023-03-03T06:13:12.532Z,33.32
2023-03-03T06:15:40.344Z,32.57
2023-03-03T06:18:08.341Z,32.74
2023-03-03T06:20:36.666Z,33.15
2023-03-03T06:23:04.431Z,33.16
2023-03-03T06:25:32.202Z,32.63
2023-03-03T06:28:00.658Z,32.49
2023-03-03T06:30:28.551Z,32.88
2023-03-03T06:32:56.390Z,32.95
2023-03-03T06:35:24.195Z,32.99
2023-03-03T06:37:52.069Z,32.79
2023-03-03T06:40:19.828Z,32.37
2023-03-03T06:42:47.648Z,32.36
2023-03-03T06:45:16.001Z,32.91
2023-03-03T06:47:43.752Z,32.68
2023-03-03T06:50:11.505Z,32.35
2023-03-03T06:52:39.281Z,32.67
2023-03-03T06:55:07.034Z,32.21
2023-03-03T06:57:34.790Z,32.33
2023-03-03T07:00:02.588Z,32.06
2023-03-03T07:02:31.396Z,31.72
2023-03-03T07:04:59.165Z,32.54
2023-03-03T07:07:26.922Z,32.24
2023-03-03T07:09:54.810Z,31.87
2023-03-03T07:12:23.028Z,31.94
2023-03-03T07:14:56.267Z,32.08
2023-03-03T07:17:23.996Z,32.07
2023-03-03T07:19:51.704Z,32.06
2023-03-03T07:22:19.494Z,31.98
2023-03-03T07:24:48.285Z,32.19
2023-03-03T07:27:16.090Z,32.25
2023-03-03T07:29:43.884Z,32.41
2023-03-03T07:32:11.866Z,32.24
2023-03-03T07:34:39.645Z,32.16
2023-03-03T07:37:07.383Z,31.90
2023-03-03T07:40:55.255Z,31.85
2023-03-03T07:43:23.029Z,31.57
2023-03-03T07:45:51.303Z,32.25
2023-03-03T07:48:19.882Z,31.76
2023-03-03T07:50:49.193Z,31.60
2023-03-03T07:53:16.992Z,31.63
2023-03-03T07:55:47.734Z,32.18
2023-03-03T07:58:16.526Z,31.97
2023-03-03T08:00:44.375Z,32.38
2023-03-03T08:03:12.292Z,31.83
2023-03-03T08:05:40.083Z,32.08
2023-03-03T08:09:25.195Z,31.68
2023-03-03T08:11:52.996Z,32.13
2023-03-03T08:14:20.746Z,31.67
2023-03-03T08:16:48.514Z,32.26
2023-03-03T08:19:16.338Z,31.94
2023-03-03T08:21:44.091Z,32.22
2023-03-03T08:24:11.861Z,32.06
2023-03-03T08:26:39.616Z,31.85
2023-03-03T08:29:07.394Z,31.95
2023-03-03T08:31:41.537Z,32.21
2023-03-03T08:34:09.861Z,32.03
2023-03-03T08:36:37.656Z,31.27
2023-03-03T08:39:05.444Z,31.78
2023-03-03T08:41:37.526Z,31.48
2023-03-03T08:44:55.089Z,31.97
2023-03-03T08:47:22.854Z,32.10
2023-03-03T08:49:50.621Z,31.90
2023-03-03T08:52:18.388Z,31.67
2023-03-03T08:54:46.150Z,31.81
2023-03-03T08:57:13.910Z,31.21
2023-03-03T08:59:41.756Z,31.62
2023-03-03T09:02:09.884Z,31.52
2023-03-03T09:04:37.686Z,31.48
2023-03-03T09:07:05.560Z,31.60
2023-03-03T09:09:33.396Z,31.85
2023-03-03T09:12:01.148Z,31.65
2023-03-03T09:14:28.931Z,31.32
2023-03-03T09:16:58.365Z,31.01
2023-03-03T09:19:26.244Z,31.30
2023-03-03T09:21:54.878Z,31.77
2023-03-03T09:25:42.306Z,31.47
2023-03-03T09:28:10.267Z,31.30
2023-03-03T09:30:39.381Z,31.76
2023-03-03T09:33:07.213Z,31.97
2023-03-03T09:35:40.226Z,31.55
2023-03-03T09:38:08.105Z,31.81
2023-03-03T09:40:35.812Z,31.76
2023-03-03T09:44:26.290Z,31.31
2023-03-03T09:46:54.121Z,31.63
2023-03-03T09:49:21.950Z,31.75
2023-03-03T09:51:50.428Z,31.64
2023-03-03T09:54:18.192Z,31.40
2023-03-03T09:56:46.662Z,31.37
2023-03-03T09:59:14.621Z,31.89
2023-03-03T10:01:42.389Z,31.63
2023-03-03T10:04:10.175Z,31.53
2023-03-03T10:06:38.106Z,31.40
2023-03-03T10:10:41.266Z,31.50
2023-03-03T10:13:09.224Z,31.53
2023-03-03T10:15:37.094Z,31.25
2023-03-03T10:18:05.457Z,31.63
2023-03-03T10:20:47.611Z,31.94
2023-03-03T10:23:21.167Z,31.19
2023-03-03T10:25:48.991Z,31.02
2023-03-03T10:28:16.785Z,31.29
2023-03-03T10:30:58.485Z,31.02
2023-03-03T10:34:25.917Z,31.25
2023-03-03T10:36:53.672Z,31.44
2023-03-03T10:39:21.606Z,31.69
2023-03-03T10:41:49.393Z,31.03
2023-03-03T10:44:17.529Z,31.30
2023-03-03T10:46:46.467Z,31.45
2023-03-03T10:49:14.795Z,31.70
2023-03-03T10:51:42.611Z,31.66
2023-03-03T10:54:30.965Z,31.23
2023-03-03T10:56:58.864Z,31.20
2023-03-03T10:59:26.683Z,31.52
2023-03-03T11:01:54.470Z,31.27
2023-03-03T11:04:22.285Z,31.46
2023-03-03T11:06:50.269Z,31.82
2023-03-03T11:09:18.822Z,31.34
2023-03-03T11:11:46.765Z,31.44
2023-03-03T11:14:15.944Z,31.18
2023-03-03T11:16:43.822Z,31.66
2023-03-03T11:19:11.706Z,30.91
2023-03-03T11:21:39.447Z,31.33
2023-03-03T11:24:07.248Z,31.56
2023-03-03T11:26:35.151Z,31.06
2023-03-03T11:29:03.013Z,31.17
2023-03-03T11:31:31.992Z,31.36
2023-03-03T11:34:00.114Z,31.21
2023-03-03T11:36:27.903Z,31.26
2023-03-03T11:38:55.816Z,31.36
2023-03-03T11:41:23.628Z,31.08
2023-03-03T11:43:51.424Z,31.06
2023-03-03T11:46:19.323Z,31.26
2023-03-03T11:48:47.087Z,31.47
2023-03-03T11:51:16.872Z,31.47
2023-03-03T11:53:44.712Z,30.95
2023-03-03T11:56:12.492Z,31.90
2023-03-03T11:58:40.218Z,31.38
2023-03-03T12:01:08.030Z,31.33
2023-03-03T12:03:36.878Z,31.67
2023-03-03T12:06:04.983Z,31.77
2023-03-03T12:08:32.861Z,31.15
2023-03-03T12:11:00.747Z,31.34
2023-03-03T12:13:28.764Z,31.70
2023-03-03T12:15:56.567Z,31.75
2023-03-03T12:18:24.366Z,30.72
2023-03-03T12:20:52.325Z,31.22
2023-03-03T12:23:20.076Z,31.48
2023-03-03T12:25:49.094Z,31.07
2023-03-03T12:28:16.840Z,31.02
2023-03-03T12:30:44.595Z,31.06
2023-03-03T12:33:12.574Z,31.50
2023-03-03T12:35:40.517Z,31.46
2023-03-03T12:38:08.373Z,31.27
2023-03-03T12:40:36.177Z,31.07
2023-03-03T12:43:05.814Z,31.04
2023-03-03T12:45:33.668Z,31.07
2023-03-03T12:48:03.848Z,31.44
2023-03-03T12:50:31.653Z,31.32
2023-03-03T12:53:00.006Z,31.35
2023-03-03T12:55:28.162Z,31.26
2023-03-03T12:57:55.893Z,31.21
2023-03-03T13:00:24.364Z,31.02
2023-03-03T13:02:52.241Z,31.64
2023-03-03T13:05:20.010Z,31.18
2023-03-03T13:07:48.387Z,31.51
2023-03-03T13:10:16.233Z,31.66
2023-03-03T13:12:44.077Z,31.13
2023-03-03T13:15:13.829Z,31.54
2023-03-03T13:17:43.721Z,31.36
2023-03-03T13:20:11.525Z,31.16
2023-03-03T13:22:39.270Z,31.75
2023-03-03T13:25:07.202Z,31.68
2023-03-03T13:27:34.976Z,31.46
2023-03-03T13:30:02.979Z,31.42
2023-03-03T13:32:30.999Z,31.18
2023-03-03T13:34:59.309Z,31.34
2023-03-03T13:37:27.364Z,31.20
2023-03-03T13:39:55.162Z,31.22
2023-03-03T13:42:23.222Z,31.47
2023-03-03T13:44:51.074Z,31.02
2023-03-03T13:47:18.980Z,31.90
2023-03-03T13:49:47.863Z,31.27
2023-03-03T13:52:17.429Z,31.67
2023-03-03T13:54:47.475Z,31.25
2023-03-03T13:57:15.270Z,31.26
2023-03-03T13:59:43.066Z,31.20
2023-03-03T14:02:11.190Z,31.25
2023-03-03T14:04:38.977Z,31.67
2023-03-03T14:07:06.826Z,31.63
2023-03-03T14:09:34.780Z,31.50
2023-03-03T14:12:03.549Z,31.25
2023-03-03T14:14:31.370Z,31.08
2023-03-03T14:16:59.458Z,31.08
2023-03-03T14:19:27.569Z,31.04
2023-03-03T14:21:55.386Z,31.65
2023-03-03T14:24:23.155Z,31.40
2023-03-03T14:26:50.950Z,31.38
2023-03-03T14:29:19.190Z,31.52
2023-03-03T14:31:47.852Z,31.02
2023-03-03T14:34:16.854Z,31.31
2023-03-03T14:36:45.941Z,31.29
2023-03-03T14:39:13.835Z,30.96
2023-03-03T14:41:41.625Z,30.94
2023-03-03T14:44:09.548Z,30.70
2023-03-03T14:46:37.418Z,30.49
2023-03-03T14:49:05.270Z,30.02
2023-03-03T14:51:34.217Z,28.83
2023-03-03T14:54:02.073Z,28.22
2023-03-03T14:56:30.228Z,27.72
2023-03-03T14:58:58.003Z,27.71
2023-03-03T15:01:25.859Z,27.53
2023-03-03T15:03:55.622Z,27.16
2023-03-03T15:06:23.375Z,26.70
2023-03-03T15:08:51.175Z,26.35
2023-03-03T15:11:18.957Z,26.39
2023-03-03T15:13:46.719Z,25.77
2023-03-03T15:16:14.568Z,26.17
2023-03-03T15:18:42.400Z,25.90
2023-03-03T15:21:10.152Z,26.23
2023-03-03T15:23:38.013Z,26.36
2023-03-03T15:26:05.764Z,27.01
2023-03-03T15:28:33.609Z,26.66
2023-03-03T15:31:13.219Z,27.21
2023-03-03T15:33:40.986Z,26.86
2023-03-03T15:36:08.818Z,27.42
2023-03-03T15:38:36.713Z,27.41
2023-03-03T15:41:04.518Z,27.91
2023-03-03T15:43:34.295Z,28.01
2023-03-03T15:46:02.113Z,28.28
2023-03-03T15:48:29.912Z,28.28
2023-03-03T15:50:58.052Z,28.32
2023-03-03T15:53:25.973Z,27.85
2023-03-03T15:55:53.799Z,28.40
2023-03-03T15:58:21.649Z,28.82
2023-03-03T16:00:49.457Z,28.90
2023-03-03T16:03:17.493Z,29.35
2023-03-03T16:05:45.978Z,29.63
2023-03-03T16:08:16.669Z,29.79
2023-03-03T16:10:45.334Z,29.69
2023-03-03T16:13:13.100Z,29.51
2023-03-03T16:15:40.909Z,30.16
2023-03-03T16:18:08.760Z,30.14
2023-03-03T16:20:37.879Z,29.76
2023-03-03T16:23:07.207Z,29.92
2023-03-03T16:40:05.359Z,30.04
2023-03-03T16:42:33.325Z,29.40
2023-03-03T16:45:01.069Z,29.11
2023-03-03T16:47:29.011Z,28.65
2023-03-03T16:49:56.771Z,28.74
2023-03-03T16:52:24.741Z,27.74
2023-03-03T16:54:54.497Z,27.92
2023-03-03T16:57:24.168Z,28.25
2023-03-03T16:59:52.608Z,28.12
2023-03-03T17:02:25.065Z,27.84
2023-03-03T17:05:00.251Z,27.98
2023-03-03T17:07:28.261Z,28.67
2023-03-03T17:09:56.013Z,28.48
2023-03-03T17:15:01.809Z,28.39
2023-03-03T17:17:29.543Z,29.37
2023-03-03T17:20:00.407Z,28.54
2023-03-03T17:22:29.612Z,28.84
2023-03-03T17:24:57.490Z,29.05
2023-03-03T17:28:00.133Z,30.34
2023-03-03T17:30:27.879Z,30.69
2023-03-03T17:32:55.663Z,30.38
2023-03-03T17:35:23.882Z,29.85
2023-03-03T17:37:51.645Z,31.25
2023-03-03T17:40:21.000Z,30.53
2023-03-03T17:45:19.039Z,31.31
2023-03-03T17:47:46.887Z,30.64
2023-03-03T17:50:26.671Z,30.35
2023-03-03T17:52:54.496Z,31.38
2023-03-03T17:55:23.174Z,30.90
2023-03-03T17:59:10.183Z,31.41
2023-03-03T18:01:38.901Z,31.18
2023-03-03T18:04:07.536Z,31.33
2023-03-03T18:06:35.423Z,31.40
2023-03-03T18:09:14.139Z,31.80
2023-03-03T18:11:42.490Z,31.35
2023-03-03T18:14:10.253Z,31.39
2023-03-03T18:16:38.213Z,32.03
2023-03-03T18:19:05.961Z,31.67
2023-03-03T18:21:35.230Z,31.50
2023-03-03T18:24:03.124Z,30.30
2023-03-03T18:26:31.080Z,29.38
2023-03-03T18:28:58.961Z,28.98
2023-03-03T18:31:26.855Z,28.42
2023-03-03T18:33:54.595Z,28.25
2023-03-03T18:36:22.358Z,27.54
2023-03-03T18:38:50.093Z,27.39
2023-03-03T18:41:17.860Z,27.79
2023-03-03T18:43:48.822Z,27.38
2023-03-03T18:46:16.830Z,27.33
2023-03-03T18:48:44.975Z,27.24
2023-03-03T18:51:13.107Z,27.46
2023-03-03T18:53:40.819Z,27.26
2023-03-03T18:56:08.728Z,28.13
2023-03-03T18:58:36.699Z,28.41
2023-03-03T19:01:04.508Z,28.70
2023-03-03T19:03:32.329Z,28.39
2023-03-03T19:06:00.414Z,28.84
2023-03-03T19:08:28.260Z,29.09
2023-03-03T19:10:56.029Z,29.35
2023-03-03T19:13:23.878Z,29.63
2023-03-03T19:15:51.678Z,30.01
2023-03-03T19:18:19.433Z,29.68
2023-03-03T19:20:48.139Z,29.88
2023-03-03T19:23:18.773Z,30.12
2023-03-03T19:25:46.550Z,30.12
2023-03-03T19:28:14.310Z,30.45
2023-03-03T19:30:42.338Z,30.55
2023-03-03T19:33:10.542Z,30.48
2023-03-03T19:35:38.344Z,30.93
2023-03-03T19:38:06.389Z,30.53
2023-03-03T19:40:34.279Z,30.64
2023-03-03T19:43:29.916Z,30.54
2023-03-03T19:45:57.719Z,30.04
2023-03-03T19:48:25.525Z,30.22
2023-03-03T19:50:53.248Z,30.19
2023-03-03T19:53:21.066Z,30.52
2023-03-03T19:55:48.821Z,30.87
2023-03-03T19:58:18.398Z,30.44
2023-03-03T20:02:37.837Z,31.02
2023-03-03T20:05:06.159Z,31.59
2023-03-03T20:07:40.816Z,31.87
2023-03-03T20:10:08.692Z,31.70
2023-03-03T20:12:36.684Z,32.29
2023-03-03T20:17:19.206Z,32.40
2023-03-03T20:19:47.080Z,31.82
2023-03-03T20:22:17.740Z,32.00
2023-03-03T20:24:46.167Z,32.15
2023-03-03T20:27:14.089Z,32.24
2023-03-03T20:29:41.963Z,31.75
2023-03-03T20:32:11.295Z,32.37
2023-03-03T20:34:39.120Z,32.09
2023-03-03T20:37:06.909Z,31.88
2023-03-03T20:39:34.703Z,32.43
2023-03-03T20:42:06.189Z,32.00
2023-03-03T20:44:33.951Z,32.38
2023-03-03T20:47:01.766Z,32.27
2023-03-03T20:49:32.429Z,32.76
2023-03-03T20:52:00.500Z,31.92
2023-03-03T20:54:30.319Z,31.83
2023-03-03T20:56:58.234Z,31.69
2023-03-03T20:59:27.519Z,31.77
2023-03-03T21:01:59.232Z,31.83
2023-03-03T21:04:50.792Z,31.93
2023-03-03T21:07:39.480Z,31.83
2023-03-03T21:10:10.074Z,32.07
2023-03-03T21:12:40.819Z,32.07
2023-03-03T21:16:41.159Z,32.36
2023-03-03T21:19:10.327Z,32.15
2023-03-03T21:21:38.138Z,32.04
2023-03-03T21:24:05.852Z,32.21
2023-03-03T21:26:33.652Z,32.02
2023-03-03T21:29:03.502Z,32.06
2023-03-03T21:31:34.048Z,32.41
2023-03-03T21:34:04.617Z,32.27
2023-03-03T21:36:32.557Z,32.44
2023-03-03T21:39:02.244Z,32.46
2023-03-03T21:41:30.514Z,32.14
2023-03-03T21:44:02.112Z,32.56
2023-03-03T21:46:30.005Z,32.23
2023-03-03T21:48:57.853Z,32.34
2023-03-03T21:51:28.832Z,32.53
2023-03-03T21:53:56.573Z,32.93
2023-03-03T21:56:24.496Z,32.03
2023-03-03T21:58:52.216Z,32.18
2023-03-03T22:01:19.955Z,32.38
2023-03-03T22:03:48.741Z,32.31
2023-03-03T22:06:16.527Z,31.91
2023-03-03T22:08:44.272Z,32.31
2023-03-03T22:11:12.661Z,32.43
2023-03-03T22:13:41.499Z,32.82
2023-03-03T22:16:09.294Z,32.65
2023-03-03T22:18:37.115Z,32.90
2023-03-03T22:21:05.807Z,32.93
2023-03-03T22:23:33.724Z,32.45
2023-03-03T22:26:02.183Z,32.42
2023-03-03T22:28:30.298Z,32.85
2023-03-03T22:30:58.198Z,32.03
2023-03-03T22:33:25.966Z,32.85
2023-03-03T22:35:53.858Z,32.55
2023-03-03T22:38:23.754Z,32.30
2023-03-03T22:40:51.664Z,32.73
2023-03-03T22:43:19.463Z,32.24
2023-03-03T22:45:47.723Z,32.22
2023-03-03T22:48:15.641Z,32.72
2023-03-03T22:50:45.195Z,31.88
2023-03-03T22:53:12.974Z,32.85
2023-03-03T22:55:40.776Z,32.55
2023-03-03T22:58:09.519Z,32.40
2023-03-03T23:00:38.448Z,32.01
2023-03-03T23:03:06.183Z,32.85
2023-03-03T23:05:34.099Z,32.54
2023-03-03T23:08:02.237Z,32.20
2023-03-03T23:10:30.035Z,32.41
2023-03-03T23:12:57.869Z,32.22
2023-03-03T23:15:26.034Z,32.05
2023-03-03T23:17:53.760Z,32.04
2023-03-03T23:20:21.540Z,32.15
2023-03-03T23:22:49.370Z,32.54
2023-03-03T23:25:17.137Z,32.30
2023-03-03T23:27:45.001Z,32.22
2023-03-03T23:30:12.716Z,32.24
2023-03-03T23:32:40.489Z,32.24
2023-03-03T23:35:08.194Z,32.70
2023-03-03T23:37:35.967Z,32.72
2023-03-03T23:40:03.694Z,32.54
2023-03-03T23:42:31.837Z,32.52
2023-03-03T23:44:59.667Z,32.20
2023-03-03T23:47:27.384Z,32.94
2023-03-03T23:49:55.203Z,32.51
2023-03-03T23:52:22.949Z,32.93
2023-03-03T23:54:51.495Z,32.34
2023-03-03T23:57:19.418Z,32.95
2023-03-03T23:59:49.339Z,32.83
